KISQ

Schoolcraft County Airport

Manistique, Michigan, USA
METAR KISQ 250515Z AUTO 24007KT 10SM SCT060 13/11 A2993 RMK AO2 T01280108
Observed Flight Rules
May-25 @ 05:15 UTC (13 minutes ago) Visual Flight Rules
Wind Visibility Clouds
240° at 7 knots 10 miles
  • Scattered at 6,000' AGL
Temperatures Readings
Current 13°C / 55°F
Dewpoint 11°C / 52°F
Humidity 88%
Altimeter 29.93" Hg
Pressure 1014 hPa
Elevation 209
METAR KISQ 250515Z AUTO 24007KT 10SM SCT060 13/11 A2993 RMK AO2 T01280108
Observed Flight Rules
May-25 @ 05:15 UTC
(13 minutes ago)
VFR
Wind Visibility
240° at 7 knots 10 miles
Clouds
  • Scattered at 6,000' AGL
Temperature Dewpoint
13°C / 55°F 11°C / 52°F
Humidity Altimeter Pressure
88% 29.93" Hg 1014 hPa